Terminal Aerodrome Forecast
Issued by NWS Atlanta, GA

Home | Current Version | Previous Version | Text Only | Print | Product List | Glossary On
Versions: 1 2 3 4 5 6 7 8 9 10 11 12 13 14 15 16 17 18 19 20 21
000
FTUS42 KFFC 201300 AAA
TAFMCN
TAF AMD
KMCN 201356Z 2014/2112 07004KT 5SM BR OVC012
      TEMPO 2014/2015 OVC008
     FM201500 06010G17KT P6SM OVC030
     FM201800 06011G16KT P6SM SCT060
     FM210000 06003KT P6SM SCT250=

USA.gov is the U.S. government's official web portal to all federal, state and local government web resources and services.